Time;durP1;ratioP1;P1;durP2;ratioP2;P2;SDS_P1;SDS_P2;PMS_P1;PMS_P2;Temp;Humidity;BMP_temperature;BMP_pressure;BME280_temperature;BME280_humidity;BME280_pressure;Samples;Min_cycle;Max_cycle;Signal;HPM_P1;HPM_P2
2022/06/10 00:00:13;;;;;;;;;;;;;;;;;;2097789;28;19924;-43
2022/06/10 00:01:13;;;;;;;;;;;;;;;;;;2098014;28;19927;-46
2022/06/10 00:02:15;;;;;;;;;;;;;;;;;;2098063;28;19928;-45
2022/06/10 00:03:15;;;;;;;;;;;;;;;;;;2097920;28;20255;-46
2022/06/10 00:04:16;;;;;;;;;;;;;;;;;;2097873;28;19991;-45
2022/06/10 00:05:17;;;;;;;;;;;;;;;;;;2097600;28;20005;-47
2022/06/10 00:06:18;;;;;;;;;;;;;;;;;;2097766;28;20393;-45
2022/06/10 00:07:19;;;;;;;;;;;;;;;;;;2097989;28;19955;-46
2022/06/10 00:08:20;;;;;;;;;;;;;;;;;;2098093;28;19966;-45
2022/06/10 00:09:21;;;;;;;;;;;;;;;;;;2098012;28;19973;-46
2022/06/10 00:10:22;;;;;;;;;;;;;;;;;;2097894;28;20306;-45
2022/06/10 00:11:22;;;;;;;;;;;;;;;;;;2093575;28;19928;-43
2022/06/10 00:12:23;;;;;;;;;;;;;;;;;;2089678;28;19921;-45
2022/06/10 00:13:24;;;;;;;;;;;;;;;;;;2089415;28;19967;-46
2022/06/10 00:14:25;;;;;;;;;;;;;;;;;;2089538;28;20374;-44
2022/06/10 00:15:26;;;;;;;;;;;;;;;;;;2089410;28;19920;-49
2022/06/10 00:16:27;;;;;;;;;;;;;;;;;;2089443;28;20365;-44
2022/06/10 00:17:28;;;;;;;;;;;;;;;;;;2089566;28;19948;-46
2022/06/10 00:18:28;;;;;;;;;;;;;;;;;;2088822;28;20412;-45
2022/06/10 00:19:29;;;;;;;;;;;;;;;;;;2088785;28;19921;-46
2022/06/10 00:20:30;;;;;;;;;;;;;;;;;;2088969;28;20009;-45
2022/06/10 00:21:31;;;;;;;;;;;;;;;;;;2090270;28;19924;-45
2022/06/10 00:22:32;;;;;;;;;;;;;;;;;;2097795;28;20448;-45
2022/06/10 00:23:33;;;;;;;;;;;;;;;;;;2097719;28;19930;-46
2022/06/10 00:24:34;;;;;;;;;;;;;;;;;;2097658;28;20007;-47
2022/06/10 00:25:36;;;;;;;;;;;;;;;;;;2097721;28;19920;-45
2022/06/10 00:26:37;;;;;;;;;;;;;;;;;;2097551;28;20074;-46
2022/06/10 00:27:38;;;;;;;;;;;;;;;;;;2097770;28;19924;-46
2022/06/10 00:28:40;;;;;;;;;;;;;;;;;;2097814;28;20007;-45
2022/06/10 00:29:40;;;;;;;;;;;;;;;;;;2097864;28;20003;-46
2022/06/10 00:30:41;;;;;;;;;;;;;;;;;;2097428;28;20266;-45
2022/06/10 00:31:42;;;;;;;;;;;;;;;;;;2097998;28;20417;-43
2022/06/10 00:32:43;;;;;;;;;;;;;;;;;;2097810;28;19955;-43
2022/06/10 00:33:44;;;;;;;;;;;;;;;;;;2097591;28;19920;-42
2022/06/10 00:34:45;;;;;;;;;;;;;;;;;;2097847;28;19924;-42
2022/06/10 00:35:46;;;;;;;;;;;;;;;;;;2097533;28;19959;-43
2022/06/10 00:36:47;;;;;;;;;;;;;;;;;;2097795;28;19958;-42
2022/06/10 00:37:47;;;;;;;;;;;;;;;;;;2097699;28;20270;-43
2022/06/10 00:38:48;;;;;;;;;;;;;;;;;;2097816;28;20022;-43
2022/06/10 00:39:49;;;;;;;;;;;;;;;;;;2097628;28;20034;-43
2022/06/10 00:40:50;;;;;;;;;;;;;;;;;;2097664;28;19963;-42
2022/06/10 00:41:51;;;;;;;;;;;;;;;;;;2097731;28;19934;-42
2022/06/10 00:42:56;;;;;;;;;;;;;;;;;;2097643;28;20427;-43
2022/06/10 00:43:57;;;;;;;;;;;;;;;;;;2097694;28;19921;-43
2022/06/10 00:44:58;;;;;;;;;;;;;;;;;;2097677;28;20286;-44
2022/06/10 00:45:59;;;;;;;;;;;;;;;;;;2097685;28;20087;-42
2022/06/10 00:47:00;;;;;;;;;;;;;;;;;;2097607;28;19920;-43
2022/06/10 00:48:01;;;;;;;;;;;;;;;;;;2097628;28;19978;-44
2022/06/10 00:49:02;;;;;;;;;;;;;;;;;;2097767;28;20358;-42
2022/06/10 00:50:03;;;;;;;;;;;;;;;;;;2097619;28;20023;-43
2022/06/10 00:51:04;;;;;;;;;;;;;;;;;;2097618;28;20019;-43
2022/06/10 00:52:05;;;;;;;;;;;;;;;;;;2097671;28;20035;-42
2022/06/10 00:53:05;;;;;;;;;;;;;;;;;;2097627;28;19921;-42
2022/06/10 00:54:07;;;;;;;;;;;;;;;;;;2097638;28;19920;-46
2022/06/10 00:55:08;;;;;;;;;;;;;;;;;;2097665;28;20010;-43
2022/06/10 00:56:09;;;;;;;;;;;;;;;;;;2097533;28;20351;-42
2022/06/10 00:57:10;;;;;;;;;;;;;;;;;;2097737;28;19920;-44
2022/06/10 00:58:11;;;;;;;;;;;;;;;;;;2097487;28;20436;-43
2022/06/10 00:59:12;;;;;;;;;;;;;;;;;;2097677;28;20113;-42
2022/06/10 01:00:13;;;;;;;;;;;;;;;;;;2097595;28;19924;-42
2022/06/10 01:01:14;;;;;;;;;;;;;;;;;;2097597;28;20277;-44
2022/06/10 01:02:14;;;;;;;;;;;;;;;;;;2097686;28;19927;-44
2022/06/10 01:03:16;;;;;;;;;;;;;;;;;;2097521;28;19920;-42
2022/06/10 01:04:16;;;;;;;;;;;;;;;;;;2097470;28;20054;-42
2022/06/10 01:05:17;;;;;;;;;;;;;;;;;;2097589;28;19920;-42
2022/06/10 01:06:18;;;;;;;;;;;;;;;;;;2097858;28;20394;-45
2022/06/10 01:07:19;;;;;;;;;;;;;;;;;;2097554;28;19962;-46
2022/06/10 01:08:21;;;;;;;;;;;;;;;;;;2097548;28;19920;-45
2022/06/10 01:09:22;;;;;;;;;;;;;;;;;;2097794;28;19930;-46
2022/06/10 01:10:22;;;;;;;;;;;;;;;;;;2097554;28;19967;-46
2022/06/10 01:11:23;;;;;;;;;;;;;;;;;;2092916;28;19921;-45
2022/06/10 01:12:24;;;;;;;;;;;;;;;;;;2089198;28;19921;-46
2022/06/10 01:13:25;;;;;;;;;;;;;;;;;;2089249;28;19925;-46
2022/06/10 01:14:26;;;;;;;;;;;;;;;;;;2089289;28;20431;-46
2022/06/10 01:15:27;;;;;;;;;;;;;;;;;;2089216;28;19928;-46
2022/06/10 01:16:28;;;;;;;;;;;;;;;;;;2089052;28;19927;-46
2022/06/10 01:17:29;;;;;;;;;;;;;;;;;;2090449;28;19944;-46
2022/06/10 01:18:29;;;;;;;;;;;;;;;;;;2090628;28;19955;-45
2022/06/10 01:19:30;;;;;;;;;;;;;;;;;;2090800;28;19931;-45
2022/06/10 01:20:31;;;;;;;;;;;;;;;;;;2090668;28;19920;-45
2022/06/10 01:21:32;;;;;;;;;;;;;;;;;;2090654;28;19920;-45
2022/06/10 01:22:33;;;;;;;;;;;;;;;;;;2090608;28;20336;-46
2022/06/10 01:23:34;;;;;;;;;;;;;;;;;;2090703;28;19920;-45
2022/06/10 01:24:35;;;;;;;;;;;;;;;;;;2090556;28;19921;-46
2022/06/10 01:25:36;;;;;;;;;;;;;;;;;;2090523;28;20011;-44
2022/06/10 01:27:52;;;;;;;;;;;;;;;;;;2098820;28;19963;-45
2022/06/10 01:28:53;;;;;;;;;;;;;;;;;;2098766;28;19931;-45
2022/06/10 01:29:54;;;;;;;;;;;;;;;;;;2098803;28;20389;-45
2022/06/10 01:30:55;;;;;;;;;;;;;;;;;;2099007;28;20006;-45
2022/06/10 01:31:56;;;;;;;;;;;;;;;;;;2098757;28;19981;-45
2022/06/10 01:32:57;;;;;;;;;;;;;;;;;;2098944;28;20254;-45
2022/06/10 01:33:59;;;;;;;;;;;;;;;;;;2099051;28;19920;-43
2022/06/10 01:35:00;;;;;;;;;;;;;;;;;;2099075;28;19966;-44
2022/06/10 01:36:00;;;;;;;;;;;;;;;;;;2099037;28;20019;-43
2022/06/10 01:37:01;;;;;;;;;;;;;;;;;;2099151;28;19927;-46
2022/06/10 01:38:02;;;;;;;;;;;;;;;;;;2098775;28;19920;-46
2022/06/10 01:39:03;;;;;;;;;;;;;;;;;;2098928;28;19928;-47
2022/06/10 01:40:04;;;;;;;;;;;;;;;;;;2098944;28;20023;-45
2022/06/10 01:41:05;;;;;;;;;;;;;;;;;;2098918;28;19978;-46
2022/06/10 01:42:06;;;;;;;;;;;;;;;;;;2098768;28;20411;-46
2022/06/10 01:43:07;;;;;;;;;;;;;;;;;;2098763;28;20015;-46
2022/06/10 01:44:09;;;;;;;;;;;;;;;;;;2098927;28;19920;-44
2022/06/10 01:45:10;;;;;;;;;;;;;;;;;;2098699;28;20282;-44
2022/06/10 01:46:12;;;;;;;;;;;;;;;;;;2098846;28;19963;-44
2022/06/10 01:47:13;;;;;;;;;;;;;;;;;;2098945;28;19954;-44
2022/06/10 01:48:13;;;;;;;;;;;;;;;;;;2098869;28;19967;-46
2022/06/10 01:49:15;;;;;;;;;;;;;;;;;;2098866;28;20369;-47
2022/06/10 01:50:16;;;;;;;;;;;;;;;;;;2098777;28;20018;-46
2022/06/10 01:51:17;;;;;;;;;;;;;;;;;;2098754;28;20007;-46
2022/06/10 01:52:20;;;;;;;;;;;;;;;;;;2098923;28;19966;-46
2022/06/10 01:53:21;;;;;;;;;;;;;;;;;;2098712;28;19921;-46
2022/06/10 01:54:22;;;;;;;;;;;;;;;;;;2098560;28;19924;-44
2022/06/10 01:55:23;;;;;;;;;;;;;;;;;;2098809;28;19975;-46
2022/06/10 01:56:23;;;;;;;;;;;;;;;;;;2098708;28;20017;-46
2022/06/10 01:57:24;;;;;;;;;;;;;;;;;;2098863;28;20400;-43
2022/06/10 01:58:25;;;;;;;;;;;;;;;;;;2098960;28;19921;-45
2022/06/10 01:59:26;;;;;;;;;;;;;;;;;;2098705;28;19927;-45
2022/06/10 02:00:27;;;;;;;;;;;;;;;;;;2098652;28;20281;-45
2022/06/10 02:01:28;;;;;;;;;;;;;;;;;;2098506;28;19931;-45
2022/06/10 02:02:29;;;;;;;;;;;;;;;;;;2098895;28;19927;-45
2022/06/10 02:03:30;;;;;;;;;;;;;;;;;;2098613;28;20335;-46
2022/06/10 02:04:31;;;;;;;;;;;;;;;;;;2098771;28;20262;-47
2022/06/10 02:05:32;;;;;;;;;;;;;;;;;;2098654;28;19954;-46
2022/06/10 02:06:32;;;;;;;;;;;;;;;;;;2098778;28;20013;-46
2022/06/10 02:07:33;;;;;;;;;;;;;;;;;;2098822;28;19928;-43
2022/06/10 02:08:34;;;;;;;;;;;;;;;;;;2098750;28;19920;-43
2022/06/10 02:09:36;;;;;;;;;;;;;;;;;;2098566;28;19920;-43
2022/06/10 02:10:37;;;;;;;;;;;;;;;;;;2098598;28;20345;-43
2022/06/10 02:11:38;;;;;;;;;;;;;;;;;;2092128;28;19967;-43
2022/06/10 02:12:38;;;;;;;;;;;;;;;;;;2090238;28;20034;-43
2022/06/10 02:13:40;;;;;;;;;;;;;;;;;;2090276;28;19920;-44
2022/06/10 02:14:40;;;;;;;;;;;;;;;;;;2090443;28;20011;-45
2022/06/10 02:15:41;;;;;;;;;;;;;;;;;;2090195;28;20385;-46
2022/06/10 02:16:42;;;;;;;;;;;;;;;;;;2090244;28;19920;-46
2022/06/10 02:17:43;;;;;;;;;;;;;;;;;;2090383;28;19928;-45
2022/06/10 02:18:44;;;;;;;;;;;;;;;;;;2090362;28;19928;-44
2022/06/10 02:19:45;;;;;;;;;;;;;;;;;;2090261;28;19956;-44
2022/06/10 02:20:46;;;;;;;;;;;;;;;;;;2090244;28;19975;-45
2022/06/10 02:21:47;;;;;;;;;;;;;;;;;;2090171;28;19927;-46
2022/06/10 02:22:47;;;;;;;;;;;;;;;;;;2094820;28;20380;-46
2022/06/10 02:23:48;;;;;;;;;;;;;;;;;;2098661;28;19924;-45
2022/06/10 02:24:49;;;;;;;;;;;;;;;;;;2098653;28;20319;-43
2022/06/10 02:25:50;;;;;;;;;;;;;;;;;;2098455;28;19920;-44
2022/06/10 02:26:51;;;;;;;;;;;;;;;;;;2098732;28;20011;-45
2022/06/10 02:27:52;;;;;;;;;;;;;;;;;;2098193;28;20023;-44
2022/06/10 02:28:53;;;;;;;;;;;;;;;;;;2098923;28;19963;-43
2022/06/10 02:29:54;;;;;;;;;;;;;;;;;;2098447;28;20011;-43
2022/06/10 02:31:00;;;;;;;;;;;;;;;;;;2098594;28;19974;-43
2022/06/10 02:32:01;;;;;;;;;;;;;;;;;;2098432;28;19974;-43
2022/06/10 02:33:02;;;;;;;;;;;;;;;;;;2098688;28;19920;-43
2022/06/10 02:34:03;;;;;;;;;;;;;;;;;;2098344;28;20456;-45
2022/06/10 02:35:04;;;;;;;;;;;;;;;;;;2098430;28;19932;-45
2022/06/10 02:36:05;;;;;;;;;;;;;;;;;;2098278;28;19955;-46
2022/06/10 02:37:05;;;;;;;;;;;;;;;;;;2098828;28;20423;-45
2022/06/10 02:38:09;;;;;;;;;;;;;;;;;;2098556;28;20002;-46
2022/06/10 02:39:11;;;;;;;;;;;;;;;;;;2098421;28;20065;-45
2022/06/10 02:40:12;;;;;;;;;;;;;;;;;;2098649;28;20388;-43
2022/06/10 02:41:13;;;;;;;;;;;;;;;;;;2098434;28;19920;-44
2022/06/10 02:42:14;;;;;;;;;;;;;;;;;;2098486;28;20007;-44
2022/06/10 02:43:15;;;;;;;;;;;;;;;;;;2098453;28;19965;-43
2022/06/10 02:44:16;;;;;;;;;;;;;;;;;;2098760;28;20009;-45
2022/06/10 02:45:16;;;;;;;;;;;;;;;;;;2098463;28;20088;-45
2022/06/10 02:46:17;;;;;;;;;;;;;;;;;;2098250;28;20341;-46
2022/06/10 02:47:18;;;;;;;;;;;;;;;;;;2098555;28;19975;-45
2022/06/10 02:48:19;;;;;;;;;;;;;;;;;;2098504;28;19969;-46
2022/06/10 02:49:20;;;;;;;;;;;;;;;;;;2098662;28;19920;-45
2022/06/10 02:50:21;;;;;;;;;;;;;;;;;;2098418;28;19971;-46
2022/06/10 02:51:23;;;;;;;;;;;;;;;;;;2098295;28;20451;-46
2022/06/10 02:52:24;;;;;;;;;;;;;;;;;;2098501;28;20445;-45
2022/06/10 02:53:25;;;;;;;;;;;;;;;;;;2098469;28;20011;-46
2022/06/10 02:54:26;;;;;;;;;;;;;;;;;;2098353;28;20419;-44
2022/06/10 02:55:27;;;;;;;;;;;;;;;;;;2098454;28;19920;-46
2022/06/10 02:56:28;;;;;;;;;;;;;;;;;;2098561;28;20023;-44
2022/06/10 03:01:25;;;;;;;;;;;;;;;;;;2098298;28;20064;-43
2022/06/10 03:02:25;;;;;;;;;;;;;;;;;;2098275;28;19943;-43
2022/06/10 03:03:26;;;;;;;;;;;;;;;;;;2098212;28;20022;-43
2022/06/10 03:04:27;;;;;;;;;;;;;;;;;;2098215;28;20015;-43
2022/06/10 03:05:28;;;;;;;;;;;;;;;;;;2098363;28;19926;-43
2022/06/10 03:06:29;;;;;;;;;;;;;;;;;;2098020;28;20371;-43
2022/06/10 03:07:30;;;;;;;;;;;;;;;;;;2098254;28;19920;-43
2022/06/10 03:08:31;;;;;;;;;;;;;;;;;;2098240;28;20007;-44
2022/06/10 03:09:32;;;;;;;;;;;;;;;;;;2098313;28;19920;-43
2022/06/10 03:10:32;;;;;;;;;;;;;;;;;;2098336;28;19927;-44
2022/06/10 03:11:33;;;;;;;;;;;;;;;;;;2092565;28;20026;-46
2022/06/10 03:12:34;;;;;;;;;;;;;;;;;;2089971;28;20003;-46
2022/06/10 03:13:35;;;;;;;;;;;;;;;;;;2090017;28;19952;-46
2022/06/10 03:14:37;;;;;;;;;;;;;;;;;;2089973;28;19966;-46
2022/06/10 03:15:38;;;;;;;;;;;;;;;;;;2089850;28;19966;-46
2022/06/10 03:16:39;;;;;;;;;;;;;;;;;;2089807;28;19921;-46
2022/06/10 03:17:41;;;;;;;;;;;;;;;;;;2089851;28;19920;-47
2022/06/10 03:18:41;;;;;;;;;;;;;;;;;;2091494;28;20461;-46
2022/06/10 03:19:42;;;;;;;;;;;;;;;;;;2098119;28;19920;-46
2022/06/10 03:20:43;;;;;;;;;;;;;;;;;;2098528;28;19924;-44
2022/06/10 03:21:44;;;;;;;;;;;;;;;;;;2098138;28;20381;-44
2022/06/10 03:22:45;;;;;;;;;;;;;;;;;;2098412;28;19921;-43
2022/06/10 03:23:46;;;;;;;;;;;;;;;;;;2098283;28;19926;-45
2022/06/10 03:24:46;;;;;;;;;;;;;;;;;;2098122;28;20235;-43
2022/06/10 03:25:47;;;;;;;;;;;;;;;;;;2098045;28;19920;-43
2022/06/10 03:26:48;;;;;;;;;;;;;;;;;;2098124;28;20011;-44
2022/06/10 03:27:49;;;;;;;;;;;;;;;;;;2098124;28;20266;-43
2022/06/10 03:28:50;;;;;;;;;;;;;;;;;;2098099;28;20007;-43
2022/06/10 03:29:51;;;;;;;;;;;;;;;;;;2098402;28;19946;-45
2022/06/10 03:30:52;;;;;;;;;;;;;;;;;;2097955;28;20018;-46
2022/06/10 03:31:53;;;;;;;;;;;;;;;;;;2098263;28;20330;-46
2022/06/10 03:32:54;;;;;;;;;;;;;;;;;;2098191;28;19920;-46
2022/06/10 03:33:55;;;;;;;;;;;;;;;;;;2097875;28;20003;-47
2022/06/10 03:34:56;;;;;;;;;;;;;;;;;;2098216;28;20030;-47
2022/06/10 03:35:57;;;;;;;;;;;;;;;;;;2097987;28;20370;-46
2022/06/10 03:36:58;;;;;;;;;;;;;;;;;;2098043;28;19920;-46
2022/06/10 03:37:58;;;;;;;;;;;;;;;;;;2098220;28;20354;-45
2022/06/10 03:39:01;;;;;;;;;;;;;;;;;;2098041;28;19970;-46
2022/06/10 03:40:02;;;;;;;;;;;;;;;;;;2097213;28;19921;-47
2022/06/10 03:41:02;;;;;;;;;;;;;;;;;;2098148;28;20451;-45
2022/06/10 03:42:03;;;;;;;;;;;;;;;;;;2098086;28;19928;-46
2022/06/10 03:43:04;;;;;;;;;;;;;;;;;;2098106;28;19924;-46
2022/06/10 03:44:05;;;;;;;;;;;;;;;;;;2097959;28;20027;-44
2022/06/10 03:45:06;;;;;;;;;;;;;;;;;;2098088;28;20388;-46
2022/06/10 03:46:07;;;;;;;;;;;;;;;;;;2098092;28;19998;-46
2022/06/10 03:47:08;;;;;;;;;;;;;;;;;;2097959;28;19920;-47
2022/06/10 03:48:09;;;;;;;;;;;;;;;;;;2097990;28;20293;-46
2022/06/10 03:49:11;;;;;;;;;;;;;;;;;;2097955;28;19921;-46
2022/06/10 03:50:12;;;;;;;;;;;;;;;;;;2097992;28;19973;-47
2022/06/10 03:51:13;;;;;;;;;;;;;;;;;;2097884;28;19924;-46
2022/06/10 03:52:14;;;;;;;;;;;;;;;;;;2098149;28;19921;-44
2022/06/10 03:53:15;;;;;;;;;;;;;;;;;;2098204;28;19959;-42
2022/06/10 03:54:17;;;;;;;;;;;;;;;;;;2097802;28;19964;-42
2022/06/10 03:55:18;;;;;;;;;;;;;;;;;;2097813;28;20305;-42
2022/06/10 03:56:19;;;;;;;;;;;;;;;;;;2098003;28;19921;-43
2022/06/10 03:57:20;;;;;;;;;;;;;;;;;;2098030;28;19928;-43
2022/06/10 03:58:21;;;;;;;;;;;;;;;;;;2098028;28;19920;-46
2022/06/10 03:59:22;;;;;;;;;;;;;;;;;;2098259;28;19925;-43
2022/06/10 04:00:23;;;;;;;;;;;;;;;;;;2098091;28;20365;-42
2022/06/10 04:01:24;;;;;;;;;;;;;;;;;;2098141;28;19974;-44
2022/06/10 04:02:26;;;;;;;;;;;;;;;;;;2097984;28;19924;-44
2022/06/10 04:03:27;;;;;;;;;;;;;;;;;;2098145;28;19932;-44
2022/06/10 04:04:28;;;;;;;;;;;;;;;;;;2097887;28;20007;-45
2022/06/10 04:05:29;;;;;;;;;;;;;;;;;;2098426;28;20007;-44
2022/06/10 04:06:31;;;;;;;;;;;;;;;;;;2097893;28;19998;-45
2022/06/10 04:07:52;;;;;;;;;;;;;;;;;;2097825;28;19921;-43
2022/06/10 04:08:53;;;;;;;;;;;;;;;;;;2097976;28;20015;-43
2022/06/10 04:09:54;;;;;;;;;;;;;;;;;;2097828;28;19920;-43
2022/06/10 04:10:55;;;;;;;;;;;;;;;;;;2097006;28;19926;-42
2022/06/10 04:11:56;;;;;;;;;;;;;;;;;;2089523;28;20392;-44
2022/06/10 04:12:57;;;;;;;;;;;;;;;;;;2089663;28;20028;-43
2022/06/10 04:13:58;;;;;;;;;;;;;;;;;;2089400;28;19928;-43
2022/06/10 04:14:58;;;;;;;;;;;;;;;;;;2091587;28;19921;-42
2022/06/10 04:15:59;;;;;;;;;;;;;;;;;;2097757;28;20393;-43
2022/06/10 04:17:00;;;;;;;;;;;;;;;;;;2097876;28;19920;-43
2022/06/10 04:18:01;;;;;;;;;;;;;;;;;;2097925;28;19967;-42
2022/06/10 04:19:02;;;;;;;;;;;;;;;;;;2097785;28;19927;-44
2022/06/10 04:20:03;;;;;;;;;;;;;;;;;;2097568;28;19989;-43
2022/06/10 04:21:04;;;;;;;;;;;;;;;;;;2097873;28;20011;-46
2022/06/10 04:22:05;;;;;;;;;;;;;;;;;;2097994;28;20012;-43
2022/06/10 04:23:06;;;;;;;;;;;;;;;;;;2097714;28;19920;-44
2022/06/10 04:24:07;;;;;;;;;;;;;;;;;;2097874;28;19964;-42
2022/06/10 04:25:07;;;;;;;;;;;;;;;;;;2097757;28;20135;-43
2022/06/10 04:26:09;;;;;;;;;;;;;;;;;;2097620;28;19920;-43
2022/06/10 04:27:09;;;;;;;;;;;;;;;;;;2097984;28;19971;-43
2022/06/10 04:28:10;;;;;;;;;;;;;;;;;;2097697;28;19978;-43
2022/06/10 04:29:11;;;;;;;;;;;;;;;;;;2097783;28;20037;-43
2022/06/10 04:30:12;;;;;;;;;;;;;;;;;;2098037;28;19924;-44
2022/06/10 04:31:13;;;;;;;;;;;;;;;;;;2097907;28;20395;-43
2022/06/10 04:32:14;;;;;;;;;;;;;;;;;;2097852;28;19923;-43
2022/06/10 04:33:15;;;;;;;;;;;;;;;;;;2097798;28;19935;-43
2022/06/10 04:34:16;;;;;;;;;;;;;;;;;;2097722;28;20011;-43
2022/06/10 04:35:17;;;;;;;;;;;;;;;;;;2097661;28;20007;-44
2022/06/10 04:36:18;;;;;;;;;;;;;;;;;;2097833;28;20153;-45
2022/06/10 04:37:19;;;;;;;;;;;;;;;;;;2097782;28;19924;-45
2022/06/10 04:38:20;;;;;;;;;;;;;;;;;;2097614;28;20431;-45
2022/06/10 04:39:22;;;;;;;;;;;;;;;;;;2097863;28;19978;-44
2022/06/10 04:40:23;;;;;;;;;;;;;;;;;;2097590;28;19920;-44
2022/06/10 04:41:24;;;;;;;;;;;;;;;;;;2097740;28;19924;-43
2022/06/10 04:42:25;;;;;;;;;;;;;;;;;;2097670;28;20385;-43
2022/06/10 04:43:27;;;;;;;;;;;;;;;;;;2097856;28;19921;-45
2022/06/10 04:44:28;;;;;;;;;;;;;;;;;;2097603;28;19921;-45
2022/06/10 04:45:29;;;;;;;;;;;;;;;;;;2097719;28;19950;-46
2022/06/10 04:46:30;;;;;;;;;;;;;;;;;;2097976;28;19920;-45
2022/06/10 04:47:31;;;;;;;;;;;;;;;;;;2097975;28;20052;-46
2022/06/10 04:48:32;;;;;;;;;;;;;;;;;;2097637;28;20040;-46
2022/06/10 04:49:33;;;;;;;;;;;;;;;;;;2097626;28;20395;-45
2022/06/10 04:50:34;;;;;;;;;;;;;;;;;;2097815;28;20057;-46
2022/06/10 04:51:34;;;;;;;;;;;;;;;;;;2097513;28;20360;-45
2022/06/10 04:52:35;;;;;;;;;;;;;;;;;;2099003;28;19959;-45
2022/06/10 04:53:36;;;;;;;;;;;;;;;;;;2099065;28;19932;-46
2022/06/10 04:54:37;;;;;;;;;;;;;;;;;;2098976;28;20013;-47
2022/06/10 04:55:38;;;;;;;;;;;;;;;;;;2099214;28;20001;-46
2022/06/10 04:56:39;;;;;;;;;;;;;;;;;;2099112;28;19920;-44
2022/06/10 04:57:40;;;;;;;;;;;;;;;;;;2099404;28;19920;-43
2022/06/10 04:58:41;;;;;;;;;;;;;;;;;;2099276;28;19943;-46
2022/06/10 04:59:41;;;;;;;;;;;;;;;;;;2099109;28;20360;-45
2022/06/10 05:00:42;;;;;;;;;;;;;;;;;;2099060;28;19964;-45
2022/06/10 05:01:43;;;;;;;;;;;;;;;;;;2099101;28;19924;-45
2022/06/10 05:02:44;;;;;;;;;;;;;;;;;;2099099;28;19955;-45
2022/06/10 05:03:45;;;;;;;;;;;;;;;;;;2098987;28;20354;-47
2022/06/10 05:04:46;;;;;;;;;;;;;;;;;;2099010;28;19968;-46
2022/06/10 05:05:47;;;;;;;;;;;;;;;;;;2098822;28;19920;-46
2022/06/10 05:06:48;;;;;;;;;;;;;;;;;;2099121;28;20003;-46
2022/06/10 05:07:51;;;;;;;;;;;;;;;;;;2099160;28;19994;-44
2022/06/10 05:08:52;;;;;;;;;;;;;;;;;;2099094;28;19924;-45
2022/06/10 05:09:53;;;;;;;;;;;;;;;;;;2099031;28;20004;-44
2022/06/10 05:10:53;;;;;;;;;;;;;;;;;;2098483;28;19924;-42
2022/06/10 05:11:54;;;;;;;;;;;;;;;;;;2098099;28;19936;-43
2022/06/10 05:12:55;;;;;;;;;;;;;;;;;;2099049;28;19920;-43
2022/06/10 05:13:57;;;;;;;;;;;;;;;;;;2098986;28;19959;-46
2022/06/10 05:14:58;;;;;;;;;;;;;;;;;;2098886;28;20015;-43
2022/06/10 05:15:59;;;;;;;;;;;;;;;;;;2098969;28;19924;-44
2022/06/10 05:16:59;;;;;;;;;;;;;;;;;;2098917;28;19920;-42
2022/06/10 05:18:01;;;;;;;;;;;;;;;;;;2098940;28;19970;-42
2022/06/10 05:19:01;;;;;;;;;;;;;;;;;;2098930;28;19921;-43
2022/06/10 05:20:02;;;;;;;;;;;;;;;;;;2099106;28;20369;-43
2022/06/10 05:21:03;;;;;;;;;;;;;;;;;;2099007;28;19975;-43
2022/06/10 05:22:04;;;;;;;;;;;;;;;;;;2098899;28;20031;-42
2022/06/10 05:23:05;;;;;;;;;;;;;;;;;;2098857;28;19920;-43
2022/06/10 05:24:06;;;;;;;;;;;;;;;;;;2099052;28;20003;-43
2022/06/10 05:25:07;;;;;;;;;;;;;;;;;;2098839;28;19967;-44
2022/06/10 05:26:08;;;;;;;;;;;;;;;;;;2098845;28;19920;-43
2022/06/10 05:27:09;;;;;;;;;;;;;;;;;;2098803;28;20345;-43
2022/06/10 05:28:10;;;;;;;;;;;;;;;;;;2098830;28;19921;-43
2022/06/10 05:29:11;;;;;;;;;;;;;;;;;;2099225;28;19924;-43
2022/06/10 05:30:12;;;;;;;;;;;;;;;;;;2099154;28;20370;-45
2022/06/10 05:31:13;;;;;;;;;;;;;;;;;;2098765;28;19920;-45
2022/06/10 05:32:14;;;;;;;;;;;;;;;;;;2098922;28;19997;-46
2022/06/10 05:33:17;;;;;;;;;;;;;;;;;;2098735;28;19920;-45
2022/06/10 05:35:37;;;;;;;;;;;;;;;;;;2098928;28;20095;-46
2022/06/10 05:36:38;;;;;;;;;;;;;;;;;;2098750;28;20536;-47
2022/06/10 05:37:39;;;;;;;;;;;;;;;;;;2098926;28;19966;-45
2022/06/10 05:38:51;;;;;;;;;;;;;;;;;;2098770;28;20449;-46
2022/06/10 05:39:52;;;;;;;;;;;;;;;;;;2099021;28;19966;-45
2022/06/10 05:42:04;;;;;;;;;;;;;;;;;;2098837;28;20015;-43
2022/06/10 05:42:15;;;;;;;;;;;;;;;;;;2099044;28;20003;-43
2022/06/10 05:43:16;;;;;;;;;;;;;;;;;;2099051;28;20011;-43
2022/06/10 05:44:17;;;;;;;;;;;;;;;;;;2098715;28;19929;-42
2022/06/10 05:45:18;;;;;;;;;;;;;;;;;;2099052;28;19947;-44
2022/06/10 05:46:19;;;;;;;;;;;;;;;;;;2098665;28;19927;-45
2022/06/10 05:47:20;;;;;;;;;;;;;;;;;;2098900;28;20289;-45
2022/06/10 05:48:21;;;;;;;;;;;;;;;;;;2098995;28;19982;-45
2022/06/10 05:49:22;;;;;;;;;;;;;;;;;;2098746;28;20476;-46
2022/06/10 05:50:23;;;;;;;;;;;;;;;;;;2098885;28;19924;-47
2022/06/10 05:51:24;;;;;;;;;;;;;;;;;;2099080;28;20066;-43
2022/06/10 05:52:25;;;;;;;;;;;;;;;;;;2098653;28;19924;-43
2022/06/10 05:53:26;;;;;;;;;;;;;;;;;;2099058;28;19952;-44
2022/06/10 05:54:26;;;;;;;;;;;;;;;;;;2098764;28;19920;-44
2022/06/10 05:55:27;;;;;;;;;;;;;;;;;;2099120;28;19920;-46
2022/06/10 05:56:28;;;;;;;;;;;;;;;;;;2098635;28;20396;-46
2022/06/10 05:57:30;;;;;;;;;;;;;;;;;;2098816;28;20223;-46
2022/06/10 05:58:31;;;;;;;;;;;;;;;;;;2099065;28;20015;-44
2022/06/10 05:59:33;;;;;;;;;;;;;;;;;;2098746;28;19989;-44
2022/06/10 06:00:34;;;;;;;;;;;;;;;;;;2098814;28;20415;-44
2022/06/10 06:01:36;;;;;;;;;;;;;;;;;;2098796;28;20393;-47
2022/06/10 06:02:37;;;;;;;;;;;;;;;;;;2098484;28;19927;-46
2022/06/10 06:03:38;;;;;;;;;;;;;;;;;;2098686;28;20007;-46
2022/06/10 06:04:39;;;;;;;;;;;;;;;;;;2098884;28;19927;-43
2022/06/10 06:05:40;;;;;;;;;;;;;;;;;;2098690;28;19928;-44
2022/06/10 06:06:41;;;;;;;;;;;;;;;;;;2098424;28;19920;-44
2022/06/10 06:07:43;;;;;;;;;;;;;;;;;;2098966;28;20014;-46
2022/06/10 06:08:46;;;;;;;;;;;;;;;;;;2098610;28;20015;-47
2022/06/10 06:09:47;;;;;;;;;;;;;;;;;;2098723;28;20030;-46
2022/06/10 06:10:48;;;;;;;;;;;;;;;;;;2098508;28;20374;-46
2022/06/10 06:11:50;;;;;;;;;;;;;;;;;;2090659;28;19991;-46
2022/06/10 06:12:51;;;;;;;;;;;;;;;;;;2090101;28;20027;-46
2022/06/10 06:13:52;;;;;;;;;;;;;;;;;;2090435;28;19921;-46
2022/06/10 06:14:53;;;;;;;;;;;;;;;;;;2090510;28;20401;-43
2022/06/10 06:15:53;;;;;;;;;;;;;;;;;;2090103;28;20133;-43
2022/06/10 06:16:55;;;;;;;;;;;;;;;;;;2090510;28;19921;-44
2022/06/10 06:17:56;;;;;;;;;;;;;;;;;;2090296;28;19963;-44
2022/06/10 06:18:57;;;;;;;;;;;;;;;;;;2090419;28;19921;-44
2022/06/10 06:19:58;;;;;;;;;;;;;;;;;;2090296;28;20361;-44
2022/06/10 06:20:59;;;;;;;;;;;;;;;;;;2090331;28;19971;-43
2022/06/10 06:22:00;;;;;;;;;;;;;;;;;;2090185;28;20391;-44
2022/06/10 06:23:01;;;;;;;;;;;;;;;;;;2090310;28;19924;-44
2022/06/10 06:24:01;;;;;;;;;;;;;;;;;;2090341;28;19999;-44
2022/06/10 06:25:02;;;;;;;;;;;;;;;;;;2090190;28;20352;-44
2022/06/10 06:26:03;;;;;;;;;;;;;;;;;;2090319;28;19924;-44
2022/06/10 06:27:05;;;;;;;;;;;;;;;;;;2090272;28;19930;-44
2022/06/10 06:28:06;;;;;;;;;;;;;;;;;;2090510;28;20063;-46
2022/06/10 06:29:07;;;;;;;;;;;;;;;;;;2090211;28;20344;-47
2022/06/10 06:30:09;;;;;;;;;;;;;;;;;;2090380;28;20003;-47
2022/06/10 06:31:09;;;;;;;;;;;;;;;;;;2090410;28;20007;-47
2022/06/10 06:32:11;;;;;;;;;;;;;;;;;;2090310;28;19924;-48
2022/06/10 06:33:11;;;;;;;;;;;;;;;;;;2090334;28;19925;-46
2022/06/10 06:34:13;;;;;;;;;;;;;;;;;;2090239;28;20249;-46
2022/06/10 06:35:15;;;;;;;;;;;;;;;;;;2090555;28;20382;-44
2022/06/10 06:36:16;;;;;;;;;;;;;;;;;;2090095;28;19920;-44
2022/06/10 06:37:17;;;;;;;;;;;;;;;;;;2090809;28;19928;-45
2022/06/10 06:38:18;;;;;;;;;;;;;;;;;;2090730;28;20336;-44
2022/06/10 06:39:19;;;;;;;;;;;;;;;;;;2090132;28;19920;-44
2022/06/10 06:40:22;;;;;;;;;;;;;;;;;;2089942;28;20449;-43
2022/06/10 06:41:23;;;;;;;;;;;;;;;;;;2090252;28;19970;-44
2022/06/10 06:42:24;;;;;;;;;;;;;;;;;;2090757;28;20294;-43
2022/06/10 06:43:25;;;;;;;;;;;;;;;;;;2090350;28;20042;-46
2022/06/10 06:44:26;;;;;;;;;;;;;;;;;;2090087;28;20436;-46
2022/06/10 06:45:27;;;;;;;;;;;;;;;;;;2090702;28;20008;-46
2022/06/10 06:46:34;;;;;;;;;;;;;;;;;;2090330;28;19925;-43
2022/06/10 06:47:35;;;;;;;;;;;;;;;;;;2090135;28;19921;-44
2022/06/10 06:48:37;;;;;;;;;;;;;;;;;;2090090;28;20371;-43
2022/06/10 06:49:38;;;;;;;;;;;;;;;;;;2090503;28;20007;-47
2022/06/10 06:50:38;;;;;;;;;;;;;;;;;;2090178;28;20366;-46
2022/06/10 06:51:40;;;;;;;;;;;;;;;;;;2090155;28;19966;-44
2022/06/10 06:52:41;;;;;;;;;;;;;;;;;;2090393;28;20000;-46
2022/06/10 06:53:42;;;;;;;;;;;;;;;;;;2090074;28;20316;-46
2022/06/10 06:54:42;;;;;;;;;;;;;;;;;;2090265;28;20067;-45
2022/06/10 06:55:43;;;;;;;;;;;;;;;;;;2090052;28;20015;-44
2022/06/10 06:56:44;;;;;;;;;;;;;;;;;;2090357;28;19925;-46
2022/06/10 06:57:45;;;;;;;;;;;;;;;;;;2090097;28;19964;-45
2022/06/10 06:58:46;;;;;;;;;;;;;;;;;;2090437;28;20026;-44
2022/06/10 06:59:47;;;;;;;;;;;;;;;;;;2090308;28;19928;-46
2022/06/10 07:00:48;;;;;;;;;;;;;;;;;;2089833;28;20008;-46
2022/06/10 07:01:49;;;;;;;;;;;;;;;;;;2090210;28;19963;-45
2022/06/10 07:02:50;;;;;;;;;;;;;;;;;;2090047;28;19920;-44
2022/06/10 07:03:51;;;;;;;;;;;;;;;;;;2092967;28;19920;-44